Terminal Aerodrome Forecast
Issued by NWS Mt. Holly, NJ

Home | Current Version | Previous Version | Text Only | Print | Product List | Glossary On
Versions: 1 2 3 4 5 6 7 8 9 10 11 12 13 14 15 16 17
000
FTUS41 KPHI 020733 AAA
TAFACY
TAF AMD
KACY 020733Z 0208/0306 VRB04KT 2SM BR FEW250
      TEMPO 0208/0211 1/4SM FG
     FM021300 12006KT P6SM SCT050
     FM021600 16008KT P6SM SCT250
     FM030300 VRB03KT 5SM BR FEW070
      AMD NOT SKED=

USA.gov is the U.S. government's official web portal to all federal, state and local government web resources and services.